sensor_id;sensor_type;location;lat;lon;timestamp;pressure;altitude;pressure_sealevel;temperature;humidity
60087;BME280;45960;53.630;55.972;2023-07-31T00:00:48;98991.09;;;23.78;55.81
60087;BME280;45960;53.630;55.972;2023-07-31T00:01:49;98990.47;;;23.76;55.65
60087;BME280;45960;53.630;55.972;2023-07-31T00:02:52;98995.28;;;23.74;55.71
60087;BME280;45960;53.630;55.972;2023-07-31T00:03:53;98996.34;;;23.73;55.62
60087;BME280;45960;53.630;55.972;2023-07-31T00:04:54;98996.75;;;23.70;55.52
60087;BME280;45960;53.630;55.972;2023-07-31T00:05:55;98988.59;;;23.63;55.57
60087;BME280;45960;53.630;55.972;2023-07-31T00:06:56;99002.66;;;23.67;55.56
60087;BME280;45960;53.630;55.972;2023-07-31T00:07:57;98999.28;;;23.65;55.55
60087;BME280;45960;53.630;55.972;2023-07-31T00:08:58;98992.19;;;23.64;55.82
60087;BME280;45960;53.630;55.972;2023-07-31T00:09:59;98998.91;;;23.61;55.40
60087;BME280;45960;53.630;55.972;2023-07-31T00:11:00;98998.03;;;23.61;55.62
60087;BME280;45960;53.630;55.972;2023-07-31T00:12:01;99003.47;;;23.61;55.54
60087;BME280;45960;53.630;55.972;2023-07-31T00:13:02;99000.16;;;23.59;55.41
60087;BME280;45960;53.630;55.972;2023-07-31T00:14:03;98997.25;;;23.54;55.70
60087;BME280;45960;53.630;55.972;2023-07-31T00:15:05;98995.16;;;23.56;55.46
60087;BME280;45960;53.630;55.972;2023-07-31T00:16:07;99004.97;;;23.57;55.64
60087;BME280;45960;53.630;55.972;2023-07-31T00:17:08;98999.72;;;23.55;55.44
60087;BME280;45960;53.630;55.972;2023-07-31T00:18:09;98980.72;;;23.42;55.50
60087;BME280;45960;53.630;55.972;2023-07-31T00:19:10;98998.31;;;23.53;55.61
60087;BME280;45960;53.630;55.972;2023-07-31T00:20:11;98997.25;;;23.54;55.77
60087;BME280;45960;53.630;55.972;2023-07-31T00:21:12;98977.41;;;23.33;55.79
60087;BME280;45960;53.630;55.972;2023-07-31T00:22:13;99004.78;;;23.52;55.63
60087;BME280;45960;53.630;55.972;2023-07-31T00:23:14;99007.75;;;23.50;55.74
60087;BME280;45960;53.630;55.972;2023-07-31T00:24:15;99005.22;;;23.49;56.12
60087;BME280;45960;53.630;55.972;2023-07-31T00:25:16;99012.34;;;23.50;56.00
60087;BME280;45960;53.630;55.972;2023-07-31T00:26:17;98997.69;;;23.44;55.86
60087;BME280;45960;53.630;55.972;2023-07-31T00:27:18;99007.13;;;23.48;56.09
60087;BME280;45960;53.630;55.972;2023-07-31T00:28:19;99012.75;;;23.46;56.03
60087;BME280;45960;53.630;55.972;2023-07-31T00:29:20;99008.19;;;23.47;56.24
60087;BME280;45960;53.630;55.972;2023-07-31T00:30:21;99008.19;;;23.40;56.13
60087;BME280;45960;53.630;55.972;2023-07-31T00:31:23;99011.09;;;23.45;56.24
60087;BME280;45960;53.630;55.972;2023-07-31T00:32:24;99015.72;;;23.45;56.35
60087;BME280;45960;53.630;55.972;2023-07-31T00:33:25;99014.91;;;23.44;56.22
60087;BME280;45960;53.630;55.972;2023-07-31T00:34:26;99017.81;;;23.43;56.60
60087;BME280;45960;53.630;55.972;2023-07-31T00:35:27;99016.97;;;23.42;56.76
60087;BME280;45960;53.630;55.972;2023-07-31T00:36:28;99016.16;;;23.42;56.53
60087;BME280;45960;53.630;55.972;2023-07-31T00:37:29;99020.78;;;23.41;56.68
60087;BME280;45960;53.630;55.972;2023-07-31T00:38:30;99018.25;;;23.40;57.08
60087;BME280;45960;53.630;55.972;2023-07-31T00:39:33;99011.56;;;23.36;56.98
60087;BME280;45960;53.630;55.972;2023-07-31T00:40:36;99019.50;;;23.37;56.67
60087;BME280;45960;53.630;55.972;2023-07-31T00:41:39;99023.31;;;23.36;57.14
60087;BME280;45960;53.630;55.972;2023-07-31T00:42:39;99021.59;;;23.35;57.08
60087;BME280;45960;53.630;55.972;2023-07-31T00:43:42;99018.28;;;23.33;57.03
60087;BME280;45960;53.630;55.972;2023-07-31T00:44:43;99027.47;;;23.32;56.78
60087;BME280;45960;53.630;55.972;2023-07-31T00:45:44;99025.00;;;23.31;57.18
60087;BME280;45960;53.630;55.972;2023-07-31T00:46:45;99029.59;;;23.30;57.35
60087;BME280;45960;53.630;55.972;2023-07-31T00:47:46;99026.25;;;23.28;57.21
60087;BME280;45960;53.630;55.972;2023-07-31T00:48:48;99011.59;;;23.16;57.51
60087;BME280;45960;53.630;55.972;2023-07-31T00:49:49;99031.69;;;23.28;57.49
60087;BME280;45960;53.630;55.972;2023-07-31T00:50:50;99042.81;;;23.27;57.55
60087;BME280;45960;53.630;55.972;2023-07-31T00:51:52;99036.50;;;23.26;57.59
60087;BME280;45960;53.630;55.972;2023-07-31T00:52:53;99039.25;;;23.26;57.54
60087;BME280;45960;53.630;55.972;2023-07-31T00:53:55;99040.31;;;23.25;57.67
60087;BME280;45960;53.630;55.972;2023-07-31T00:54:56;99041.34;;;23.24;57.57
60087;BME280;45960;53.630;55.972;2023-07-31T00:55:58;99044.88;;;23.24;57.52
60087;BME280;45960;53.630;55.972;2023-07-31T00:56:59;99030.47;;;23.11;57.54
60087;BME280;45960;53.630;55.972;2023-07-31T00:58:00;99043.47;;;23.22;57.58
60087;BME280;45960;53.630;55.972;2023-07-31T00:59:01;99048.03;;;23.21;57.64
60087;BME280;45960;53.630;55.972;2023-07-31T01:00:03;99054.34;;;23.22;57.63
60087;BME280;45960;53.630;55.972;2023-07-31T01:01:04;99051.00;;;23.20;57.67
60087;BME280;45960;53.630;55.972;2023-07-31T01:02:06;99053.72;;;23.20;57.83
60087;BME280;45960;53.630;55.972;2023-07-31T01:03:07;99052.66;;;23.21;57.59
60087;BME280;45960;53.630;55.972;2023-07-31T01:04:08;99056.44;;;23.20;57.90
60087;BME280;45960;53.630;55.972;2023-07-31T01:05:09;99057.09;;;23.22;57.70
60087;BME280;45960;53.630;55.972;2023-07-31T01:07:35;99058.09;;;23.21;57.77
60087;BME280;45960;53.630;55.972;2023-07-31T01:09:10;99052.44;;;23.16;57.92
60087;BME280;45960;53.630;55.972;2023-07-31T01:10:20;99054.38;;;23.09;58.04
60087;BME280;45960;53.630;55.972;2023-07-31T01:11:33;99053.09;;;23.05;57.99
60087;BME280;45960;53.630;55.972;2023-07-31T01:12:38;99059.59;;;23.04;58.01
60087;BME280;45960;53.630;55.972;2023-07-31T01:13:39;99060.66;;;23.03;58.05
60087;BME280;45960;53.630;55.972;2023-07-31T01:14:40;99040.06;;;22.93;58.24
60087;BME280;45960;53.630;55.972;2023-07-31T01:15:41;99060.25;;;23.06;58.23
60087;BME280;45960;53.630;55.972;2023-07-31T01:16:42;99052.50;;;23.03;58.48
60087;BME280;45960;53.630;55.972;2023-07-31T01:17:44;99062.75;;;23.00;58.28
60087;BME280;45960;53.630;55.972;2023-07-31T01:18:45;99053.09;;;22.98;58.36
60087;BME280;45960;53.630;55.972;2023-07-31T01:19:47;99027.50;;;22.79;58.31
60087;BME280;45960;53.630;55.972;2023-07-31T01:21:03;99052.69;;;23.01;58.43
60087;BME280;45960;53.630;55.972;2023-07-31T01:26:12;99054.38;;;22.95;58.65
60087;BME280;45960;53.630;55.972;2023-07-31T01:27:15;99046.78;;;22.91;58.80
60087;BME280;45960;53.630;55.972;2023-07-31T01:28:27;99056.88;;;23.04;58.44
60087;BME280;45960;53.630;55.972;2023-07-31T01:29:45;99056.44;;;23.07;58.25
60087;BME280;45960;53.630;55.972;2023-07-31T01:30:48;99061.91;;;23.07;58.37
60087;BME280;45960;53.630;55.972;2023-07-31T01:31:53;99064.84;;;23.12;58.49
60087;BME280;45960;53.630;55.972;2023-07-31T01:32:57;99068.19;;;23.14;58.47
60087;BME280;45960;53.630;55.972;2023-07-31T01:34:01;99069.66;;;23.16;58.33
60087;BME280;45960;53.630;55.972;2023-07-31T01:35:02;99076.53;;;23.19;58.56
60087;BME280;45960;53.630;55.972;2023-07-31T01:36:04;99072.78;;;23.20;58.41
60087;BME280;45960;53.630;55.972;2023-07-31T01:37:05;99081.81;;;23.20;58.57
60087;BME280;45960;53.630;55.972;2023-07-31T01:38:06;99079.91;;;23.21;58.28
60087;BME280;45960;53.630;55.972;2023-07-31T01:39:08;99079.91;;;23.21;58.12
60087;BME280;45960;53.630;55.972;2023-07-31T01:40:09;99082.44;;;23.22;58.40
60087;BME280;45960;53.630;55.972;2023-07-31T01:41:10;99085.34;;;23.21;58.05
60087;BME280;45960;53.630;55.972;2023-07-31T01:42:12;99082.00;;;23.19;58.09
60087;BME280;45960;53.630;55.972;2023-07-31T01:43:13;99084.94;;;23.17;58.17
60087;BME280;45960;53.630;55.972;2023-07-31T01:44:14;99081.59;;;23.15;58.06
60087;BME280;45960;53.630;55.972;2023-07-31T01:45:15;99079.50;;;23.17;58.09
60087;BME280;45960;53.630;55.972;2023-07-31T01:46:16;99087.44;;;23.19;58.14
60087;BME280;45960;53.630;55.972;2023-07-31T01:47:17;99086.22;;;23.15;58.08
60087;BME280;45960;53.630;55.972;2023-07-31T01:48:18;99088.94;;;23.15;58.23
60087;BME280;45960;53.630;55.972;2023-07-31T01:49:20;99087.44;;;23.19;58.32
60087;BME280;45960;53.630;55.972;2023-07-31T01:50:21;99082.00;;;23.19;58.32
60087;BME280;45960;53.630;55.972;2023-07-31T01:51:22;99084.72;;;23.19;58.22
60087;BME280;45960;53.630;55.972;2023-07-31T01:52:23;99084.53;;;23.20;58.27
60087;BME280;45960;53.630;55.972;2023-07-31T01:53:24;99079.91;;;23.21;58.05
60087;BME280;45960;53.630;55.972;2023-07-31T01:54:25;99084.94;;;23.24;58.23
60087;BME280;45960;53.630;55.972;2023-07-31T01:55:26;99079.47;;;23.24;58.14
60087;BME280;45960;53.630;55.972;2023-07-31T01:56:27;99076.97;;;23.29;58.14
60087;BME280;45960;53.630;55.972;2023-07-31T01:57:28;99079.91;;;23.34;58.15
60087;BME280;45960;53.630;55.972;2023-07-31T01:58:29;99083.03;;;23.38;58.12
60087;BME280;45960;53.630;55.972;2023-07-31T01:59:31;99086.19;;;23.41;58.12
60087;BME280;45960;53.630;55.972;2023-07-31T02:00:32;99089.53;;;23.43;58.17
60087;BME280;45960;53.630;55.972;2023-07-31T02:01:33;99093.50;;;23.48;58.17
60087;BME280;45960;53.630;55.972;2023-07-31T02:02:34;99097.91;;;23.49;58.17
60087;BME280;45960;53.630;55.972;2023-07-31T02:03:35;99102.94;;;23.52;57.83
60087;BME280;45960;53.630;55.972;2023-07-31T02:04:36;99100.00;;;23.53;57.42
60087;BME280;45960;53.630;55.972;2023-07-31T02:05:48;99098.09;;;23.54;57.46
60087;BME280;45960;53.630;55.972;2023-07-31T02:06:50;99098.75;;;23.56;57.62
60087;BME280;45960;53.630;55.972;2023-07-31T02:07:51;99098.31;;;23.59;57.44
60087;BME280;45960;53.630;55.972;2023-07-31T02:08:52;99095.16;;;23.62;57.39
60087;BME280;45960;53.630;55.972;2023-07-31T02:09:53;99099.13;;;23.66;57.50
60087;BME280;45960;53.630;55.972;2023-07-31T02:10:54;99094.09;;;23.70;57.21
60087;BME280;45960;53.630;55.972;2023-07-31T02:11:55;99095.78;;;23.71;57.20
60087;BME280;45960;53.630;55.972;2023-07-31T02:12:56;99100.81;;;23.74;57.18
60087;BME280;45960;53.630;55.972;2023-07-31T02:13:58;99105.00;;;23.76;56.93
60087;BME280;45960;53.630;55.972;2023-07-31T02:14:59;99097.03;;;23.75;57.03
60087;BME280;45960;53.630;55.972;2023-07-31T02:16:00;99094.94;;;23.70;56.94
60087;BME280;45960;53.630;55.972;2023-07-31T02:17:02;99099.34;;;23.71;57.08
60087;BME280;45960;53.630;55.972;2023-07-31T02:18:03;99099.97;;;23.73;57.27
60087;BME280;45960;53.630;55.972;2023-07-31T02:19:10;99099.56;;;23.76;57.18
60087;BME280;45960;53.630;55.972;2023-07-31T02:20:11;99100.78;;;23.80;57.13
60087;BME280;45960;53.630;55.972;2023-07-31T02:21:12;99103.06;;;23.83;56.90
60087;BME280;45960;53.630;55.972;2023-07-31T02:22:13;99100.53;;;23.88;56.90
60087;BME280;45960;53.630;55.972;2023-07-31T02:23:14;99106.19;;;23.94;56.70
60087;BME280;45960;53.630;55.972;2023-07-31T02:24:15;99111.22;;;23.97;56.93
60087;BME280;45960;53.630;55.972;2023-07-31T02:25:16;99105.34;;;24.00;56.73
60087;BME280;45960;53.630;55.972;2023-07-31T02:26:17;99107.44;;;24.04;56.61
60087;BME280;45960;53.630;55.972;2023-07-31T02:27:19;99106.16;;;24.07;56.61
60087;BME280;45960;53.630;55.972;2023-07-31T02:28:20;99107.81;;;24.08;56.63
60087;BME280;45960;53.630;55.972;2023-07-31T02:29:21;99111.19;;;24.10;56.09
60087;BME280;45960;53.630;55.972;2023-07-31T02:30:22;99103.44;;;24.07;56.37
60087;BME280;45960;53.630;55.972;2023-07-31T02:31:23;99114.09;;;24.15;56.15
60087;BME280;45960;53.630;55.972;2023-07-31T02:32:24;99108.66;;;24.15;56.39
60087;BME280;45960;53.630;55.972;2023-07-31T02:33:25;99106.34;;;24.12;56.34
60087;BME280;45960;53.630;55.972;2023-07-31T02:34:26;99115.75;;;24.16;56.20
60087;BME280;45960;53.630;55.972;2023-07-31T02:35:27;99117.47;;;24.17;55.99
60087;BME280;45960;53.630;55.972;2023-07-31T02:36:29;99126.25;;;24.19;56.15
60087;BME280;45960;53.630;55.972;2023-07-31T02:37:30;99121.66;;;24.13;56.47
60087;BME280;45960;53.630;55.972;2023-07-31T02:38:31;99120.22;;;24.04;56.50
60087;BME280;45960;53.630;55.972;2023-07-31T02:39:32;99122.13;;;24.03;56.78
60087;BME280;45960;53.630;55.972;2023-07-31T02:40:33;99127.59;;;24.03;56.52
60087;BME280;45960;53.630;55.972;2023-07-31T02:41:34;99129.66;;;24.08;56.97
60087;BME280;45960;53.630;55.972;2023-07-31T02:42:36;99117.03;;;24.13;56.76
60087;BME280;45960;53.630;55.972;2023-07-31T02:43:37;99121.66;;;24.13;56.47
60087;BME280;45960;53.630;55.972;2023-07-31T02:44:38;99123.94;;;24.16;56.64
60087;BME280;45960;53.630;55.972;2023-07-31T02:45:39;99125.81;;;24.22;56.38
60087;BME280;45960;53.630;55.972;2023-07-31T02:46:40;99128.72;;;24.27;56.30
60087;BME280;45960;53.630;55.972;2023-07-31T02:47:41;99129.56;;;24.34;55.89
60087;BME280;45960;53.630;55.972;2023-07-31T02:48:42;99139.59;;;24.41;55.69
60087;BME280;45960;53.630;55.972;2023-07-31T02:49:43;99142.94;;;24.49;55.92
60087;BME280;45960;53.630;55.972;2023-07-31T02:50:45;99135.75;;;24.55;55.55
60087;BME280;45960;53.630;55.972;2023-07-31T02:51:46;99140.34;;;24.61;55.66
60087;BME280;45960;53.630;55.972;2023-07-31T02:52:47;99122.13;;;24.55;55.64
60087;BME280;45960;53.630;55.972;2023-07-31T02:53:48;99141.59;;;24.65;55.39
60087;BME280;45960;53.630;55.972;2023-07-31T02:54:50;99143.25;;;24.66;55.47
60087;BME280;45960;53.630;55.972;2023-07-31T02:55:51;99143.44;;;24.71;55.42
60087;BME280;45960;53.630;55.972;2023-07-31T02:56:52;99141.28;;;24.80;55.04
60087;BME280;45960;53.630;55.972;2023-07-31T02:57:53;99137.66;;;24.86;54.80
60087;BME280;45960;53.630;55.972;2023-07-31T02:58:55;99141.41;;;24.92;54.82
60087;BME280;45960;53.630;55.972;2023-07-31T02:59:56;99140.53;;;24.98;54.46
60087;BME280;45960;53.630;55.972;2023-07-31T03:00:58;99140.94;;;25.01;54.19
60087;BME280;45960;53.630;55.972;2023-07-31T03:01:59;99131.28;;;24.99;54.27
60087;BME280;45960;53.630;55.972;2023-07-31T03:03:01;99146.13;;;25.10;53.87
60087;BME280;45960;53.630;55.972;2023-07-31T03:04:07;99155.97;;;25.17;54.07
60087;BME280;45960;53.630;55.972;2023-07-31T03:05:08;99154.19;;;25.30;53.96
60087;BME280;45960;53.630;55.972;2023-07-31T03:06:09;99149.47;;;25.43;53.90
60087;BME280;45960;53.630;55.972;2023-07-31T03:07:11;99151.84;;;25.58;53.13
60087;BME280;45960;53.630;55.972;2023-07-31T03:08:12;99154.91;;;25.68;52.99
60087;BME280;45960;53.630;55.972;2023-07-31T03:09:13;99160.44;;;25.80;52.77
60087;BME280;45960;53.630;55.972;2023-07-31T03:10:14;99163.91;;;25.94;52.23
60087;BME280;45960;53.630;55.972;2023-07-31T03:11:15;99159.81;;;26.03;52.25
60087;BME280;45960;53.630;55.972;2023-07-31T03:12:17;99160.59;;;26.10;51.98
60087;BME280;45960;53.630;55.972;2023-07-31T03:13:18;99150.63;;;26.16;51.82
60087;BME280;45960;53.630;55.972;2023-07-31T03:14:19;99152.91;;;26.19;51.76
60087;BME280;45960;53.630;55.972;2023-07-31T03:15:20;99159.94;;;26.27;51.48
60087;BME280;45960;53.630;55.972;2023-07-31T03:16:21;99164.53;;;26.33;51.30
60087;BME280;45960;53.630;55.972;2023-07-31T03:17:23;99155.22;;;26.34;51.40
60087;BME280;45960;53.630;55.972;2023-07-31T03:18:24;99144.75;;;26.31;51.28
60087;BME280;45960;53.630;55.972;2023-07-31T03:19:25;99133.78;;;26.31;51.12
60087;BME280;45960;53.630;55.972;2023-07-31T03:20:26;99157.19;;;26.45;50.86
60087;BME280;45960;53.630;55.972;2023-07-31T03:21:27;99158.72;;;26.41;50.95
60087;BME280;45960;53.630;55.972;2023-07-31T03:22:28;99161.47;;;26.41;51.29
60087;BME280;45960;53.630;55.972;2023-07-31T03:23:29;99161.00;;;26.44;51.29
60087;BME280;45960;53.630;55.972;2023-07-31T03:24:30;99160.94;;;26.51;51.46
60087;BME280;45960;53.630;55.972;2023-07-31T03:25:31;99157.28;;;26.57;51.22
60087;BME280;45960;53.630;55.972;2023-07-31T03:26:32;99162.06;;;26.62;50.92
60087;BME280;45960;53.630;55.972;2023-07-31T03:27:33;99158.84;;;26.65;50.75
60087;BME280;45960;53.630;55.972;2023-07-31T03:28:34;99152.78;;;26.63;50.94
60087;BME280;45960;53.630;55.972;2023-07-31T03:29:35;99161.59;;;26.65;50.72
60087;BME280;45960;53.630;55.972;2023-07-31T03:30:37;99152.91;;;26.68;50.65
60087;BME280;45960;53.630;55.972;2023-07-31T03:31:38;99153.53;;;26.70;50.44
60087;BME280;45960;53.630;55.972;2023-07-31T03:32:41;99152.69;;;26.69;50.61
60087;BME280;45960;53.630;55.972;2023-07-31T03:33:42;99156.84;;;26.72;50.79
60087;BME280;45960;53.630;55.972;2023-07-31T03:34:43;99158.53;;;26.73;50.36
60087;BME280;45960;53.630;55.972;2023-07-31T03:35:44;99147.56;;;26.73;50.10
60087;BME280;45960;53.630;55.972;2023-07-31T03:36:46;99153.28;;;26.71;50.37
60087;BME280;45960;53.630;55.972;2023-07-31T03:37:47;99158.53;;;26.73;50.80
60087;BME280;45960;53.630;55.972;2023-07-31T03:38:48;99157.31;;;26.69;50.26
60087;BME280;45960;53.630;55.972;2023-07-31T03:39:48;99162.53;;;26.59;50.59
60087;BME280;45960;53.630;55.972;2023-07-31T03:40:50;99153.38;;;26.46;50.88
60087;BME280;45960;53.630;55.972;2023-07-31T03:41:51;99159.78;;;26.40;51.06
60087;BME280;45960;53.630;55.972;2023-07-31T03:42:52;99165.72;;;26.37;51.03
60087;BME280;45960;53.630;55.972;2023-07-31T03:43:53;99156.88;;;26.35;51.49
60087;BME280;45960;53.630;55.972;2023-07-31T03:44:57;99160.72;;;26.34;51.56
60087;BME280;45960;53.630;55.972;2023-07-31T03:45:57;99155.06;;;26.29;51.44
60087;BME280;45960;53.630;55.972;2023-07-31T03:46:59;99168.16;;;26.27;51.36
60087;BME280;45960;53.630;55.972;2023-07-31T03:48:00;99129.03;;;26.08;51.33
60087;BME280;45960;53.630;55.972;2023-07-31T03:49:02;99163.13;;;26.24;51.22
60087;BME280;45960;53.630;55.972;2023-07-31T03:50:03;99160.41;;;26.24;50.95
60087;BME280;45960;53.630;55.972;2023-07-31T03:51:05;99161.03;;;26.26;51.20
60087;BME280;45960;53.630;55.972;2023-07-31T03:52:06;99155.91;;;26.29;50.97
60087;BME280;45960;53.630;55.972;2023-07-31T03:53:07;99160.72;;;26.34;50.94
60087;BME280;45960;53.630;55.972;2023-07-31T03:54:08;99158.59;;;26.36;51.01
60087;BME280;45960;53.630;55.972;2023-07-31T03:55:09;99164.31;;;26.46;50.81
60087;BME280;45960;53.630;55.972;2023-07-31T03:56:11;99172.72;;;26.51;51.09
60087;BME280;45960;53.630;55.972;2023-07-31T03:57:12;99174.16;;;26.54;50.62
60087;BME280;45960;53.630;55.972;2023-07-31T03:58:13;99162.53;;;26.59;50.76
60087;BME280;45960;53.630;55.972;2023-07-31T03:59:14;99159.94;;;26.64;50.33
60087;BME280;45960;53.630;55.972;2023-07-31T04:00:15;99145.47;;;26.56;49.83
60087;BME280;45960;53.630;55.972;2023-07-31T04:01:16;99136.66;;;26.54;49.93
60087;BME280;45960;53.630;55.972;2023-07-31T04:02:18;99153.06;;;26.73;50.10
60087;BME280;45960;53.630;55.972;2023-07-31T04:03:19;99161.41;;;26.78;49.86
60087;BME280;45960;53.630;55.972;2023-07-31T04:04:20;99157.13;;;26.82;49.69
60087;BME280;45960;53.630;55.972;2023-07-31T04:05:21;99164.75;;;26.80;49.57
60087;BME280;45960;53.630;55.972;2023-07-31T04:06:22;99164.38;;;26.76;49.89
60087;BME280;45960;53.630;55.972;2023-07-31T04:07:23;99165.69;;;26.74;49.31
60087;BME280;45960;53.630;55.972;2023-07-31T04:08:24;99164.47;;;26.70;49.28
60087;BME280;45960;53.630;55.972;2023-07-31T04:09:25;99136.06;;;26.52;49.82
60087;BME280;45960;53.630;55.972;2023-07-31T04:10:28;99165.69;;;26.74;49.46
60087;BME280;45960;53.630;55.972;2023-07-31T04:11:31;99163.53;;;26.76;49.41
60087;BME280;45960;53.630;55.972;2023-07-31T04:12:33;99165.47;;;26.75;49.23
60087;BME280;45960;53.630;55.972;2023-07-31T04:13:35;99171.63;;;26.71;49.05
60087;BME280;45960;53.630;55.972;2023-07-31T04:14:37;99162.78;;;26.69;49.21
60087;BME280;45960;53.630;55.972;2023-07-31T04:15:39;99171.34;;;26.61;49.35
60087;BME280;45960;53.630;55.972;2023-07-31T04:16:41;99168.00;;;26.59;49.32
60087;BME280;45960;53.630;55.972;2023-07-31T04:17:42;99165.50;;;26.57;49.87
60087;BME280;45960;53.630;55.972;2023-07-31T04:18:43;99171.22;;;26.55;49.72
60087;BME280;45960;53.630;55.972;2023-07-31T04:19:45;99169.78;;;26.53;49.82
60087;BME280;45960;53.630;55.972;2023-07-31T04:20:46;99173.97;;;26.55;49.80
60087;BME280;45960;53.630;55.972;2023-07-31T04:21:48;99166.31;;;26.58;49.87
60087;BME280;45960;53.630;55.972;2023-07-31T04:22:49;99160.38;;;26.61;49.76
60087;BME280;45960;53.630;55.972;2023-07-31T04:23:50;99163.19;;;26.72;49.61
60087;BME280;45960;53.630;55.972;2023-07-31T04:24:52;99159.25;;;26.80;49.31
60087;BME280;45960;53.630;55.972;2023-07-31T04:25:53;99158.09;;;26.88;48.73
60087;BME280;45960;53.630;55.972;2023-07-31T04:26:54;99164.09;;;26.96;49.10
60087;BME280;45960;53.630;55.972;2023-07-31T04:27:55;99158.13;;;26.99;48.01
60087;BME280;45960;53.630;55.972;2023-07-31T04:28:56;99169.09;;;26.99;47.86
60087;BME280;45960;53.630;55.972;2023-07-31T04:29:57;99158.38;;;26.98;48.01
60087;BME280;45960;53.630;55.972;2023-07-31T04:30:58;99159.22;;;26.98;47.91
60087;BME280;45960;53.630;55.972;2023-07-31T04:31:59;99162.41;;;26.95;48.22
60087;BME280;45960;53.630;55.972;2023-07-31T04:33:00;99158.13;;;26.99;48.13
60087;BME280;45960;53.630;55.972;2023-07-31T04:34:01;99164.34;;;27.07;48.04
60087;BME280;45960;53.630;55.972;2023-07-31T04:35:03;99163.88;;;27.10;47.35
60087;BME280;45960;53.630;55.972;2023-07-31T04:36:05;99161.00;;;27.05;47.72
60087;BME280;45960;53.630;55.972;2023-07-31T04:37:06;99162.91;;;27.04;47.61
60087;BME280;45960;53.630;55.972;2023-07-31T04:38:07;99162.81;;;27.11;47.32
60087;BME280;45960;53.630;55.972;2023-07-31T04:39:08;99169.50;;;27.15;47.24
60087;BME280;45960;53.630;55.972;2023-07-31T04:40:09;99162.03;;;27.22;47.54
60087;BME280;45960;53.630;55.972;2023-07-31T04:41:10;99170.38;;;27.27;46.98
60087;BME280;45960;53.630;55.972;2023-07-31T04:42:11;99166.13;;;27.31;47.38
60087;BME280;45960;53.630;55.972;2023-07-31T04:43:12;99164.34;;;27.37;47.62
60087;BME280;45960;53.630;55.972;2023-07-31T04:44:14;99165.16;;;27.37;47.59
60087;BME280;45960;53.630;55.972;2023-07-31T04:45:15;99169.56;;;27.38;47.54
60087;BME280;45960;53.630;55.972;2023-07-31T04:46:16;99160.03;;;27.41;47.60
60087;BME280;45960;53.630;55.972;2023-07-31T04:47:17;99162.91;;;27.46;47.49
60087;BME280;45960;53.630;55.972;2023-07-31T04:48:18;99154.44;;;27.48;47.74
60087;BME280;45960;53.630;55.972;2023-07-31T04:49:19;99159.19;;;27.64;47.48
60087;BME280;45960;53.630;55.972;2023-07-31T04:50:20;99167.06;;;27.72;48.08
60087;BME280;45960;53.630;55.972;2023-07-31T04:51:21;99164.81;;;27.81;47.71
60087;BME280;45960;53.630;55.972;2023-07-31T04:52:22;99162.56;;;27.89;47.60
60087;BME280;45960;53.630;55.972;2023-07-31T04:53:23;99160.41;;;27.92;47.56
60087;BME280;45960;53.630;55.972;2023-07-31T04:54:24;99166.72;;;27.92;47.08
60087;BME280;45960;53.630;55.972;2023-07-31T04:55:25;99171.38;;;27.92;46.81
60087;BME280;45960;53.630;55.972;2023-07-31T04:56:26;99170.69;;;27.84;46.82
60087;BME280;45960;53.630;55.972;2023-07-31T04:57:27;99168.75;;;27.73;46.42
60087;BME280;45960;53.630;55.972;2023-07-31T04:58:28;99155.88;;;27.62;46.59
60087;BME280;45960;53.630;55.972;2023-07-31T04:59:29;99163.03;;;27.63;46.95
60087;BME280;45960;53.630;55.972;2023-07-31T05:00:30;99152.03;;;27.63;46.89
60087;BME280;45960;53.630;55.972;2023-07-31T05:01:31;99165.41;;;27.71;46.88
60087;BME280;45960;53.630;55.972;2023-07-31T05:02:32;99164.94;;;27.74;46.75
60087;BME280;45960;53.630;55.972;2023-07-31T05:03:33;99169.69;;;27.67;46.09
60087;BME280;45960;53.630;55.972;2023-07-31T05:04:34;99166.00;;;27.61;46.19
60087;BME280;45960;53.630;55.972;2023-07-31T05:05:35;99162.28;;;27.56;46.68
60087;BME280;45960;53.630;55.972;2023-07-31T05:06:36;99152.28;;;27.50;47.15
60087;BME280;45960;53.630;55.972;2023-07-31T05:07:37;99150.25;;;27.57;46.97
60087;BME280;45960;53.630;55.972;2023-07-31T05:08:39;99169.25;;;27.70;46.60
60087;BME280;45960;53.630;55.972;2023-07-31T05:09:39;99168.84;;;27.78;46.29
60087;BME280;45960;53.630;55.972;2023-07-31T05:10:41;99166.25;;;27.83;46.02
60087;BME280;45960;53.630;55.972;2023-07-31T05:11:42;99165.22;;;27.84;45.81
60087;BME280;45960;53.630;55.972;2023-07-31T05:12:43;99163.75;;;27.94;45.54
60087;BME280;45960;53.630;55.972;2023-07-31T05:13:44;99166.75;;;28.04;45.68
60087;BME280;45960;53.630;55.972;2023-07-31T05:14:45;99161.31;;;28.09;45.34
60087;BME280;45960;53.630;55.972;2023-07-31T05:15:46;99167.53;;;28.16;45.36
60087;BME280;45960;53.630;55.972;2023-07-31T05:16:50;99166.44;;;28.17;44.98
60087;BME280;45960;53.630;55.972;2023-07-31T05:17:51;99162.75;;;28.23;44.66
60087;BME280;45960;53.630;55.972;2023-07-31T05:18:52;99154.59;;;28.28;44.60
60087;BME280;45960;53.630;55.972;2023-07-31T05:19:53;99169.66;;;28.38;44.05
60087;BME280;45960;53.630;55.972;2023-07-31T05:20:54;99163.66;;;28.41;43.27
60087;BME280;45960;53.630;55.972;2023-07-31T05:21:55;99162.22;;;28.50;43.38
60087;BME280;45960;53.630;55.972;2023-07-31T05:22:56;99167.09;;;28.60;43.27
60087;BME280;45960;53.630;55.972;2023-07-31T05:23:57;99167.78;;;28.67;42.97
60087;BME280;45960;53.630;55.972;2023-07-31T05:24:58;99174.78;;;28.74;42.99
60087;BME280;45960;53.630;55.972;2023-07-31T05:26:06;99162.22;;;28.78;42.64
60087;BME280;45960;53.630;55.972;2023-07-31T05:27:08;99164.41;;;28.76;42.68
60087;BME280;45960;53.630;55.972;2023-07-31T05:28:11;99168.81;;;28.77;42.95